createdAt,value
2023-11-25T00:00:59.287Z,81.9
2023-11-25T00:01:59.315Z,81.6
2023-11-25T00:02:59.266Z,81.9
2023-11-25T00:03:59.248Z,81.9
2023-11-25T00:04:59.254Z,81.9
2023-11-25T00:05:59.248Z,82.5
2023-11-25T00:06:59.284Z,82.5
2023-11-25T00:07:59.247Z,82.5
2023-11-25T00:08:59.255Z,82.8
2023-11-25T00:09:59.252Z,83.1
2023-11-25T00:10:59.244Z,83.1
2023-11-25T00:11:59.249Z,83.1
2023-11-25T00:12:59.265Z,83.1
2023-11-25T00:13:59.265Z,83.1
2023-11-25T00:14:59.258Z,82.8
2023-11-25T00:15:59.249Z,82.8
2023-11-25T00:16:59.311Z,82.5
2023-11-25T00:17:59.308Z,83.1
2023-11-25T00:18:59.249Z,82.8
2023-11-25T00:19:59.271Z,82.5
2023-11-25T00:20:59.235Z,82.5
2023-11-25T00:21:59.281Z,82.5
2023-11-25T00:22:59.251Z,82.2
2023-11-25T00:23:59.260Z,82.2
2023-11-25T00:24:59.244Z,82.2
2023-11-25T00:25:59.254Z,81.9
2023-11-25T00:26:59.256Z,81.9
2023-11-25T00:27:59.250Z,82.2
2023-11-25T00:28:59.252Z,82.5
2023-11-25T00:29:59.279Z,81.8
2023-11-25T00:30:59.249Z,81.9
2023-11-25T00:31:59.246Z,81.9
2023-11-25T00:32:59.292Z,81.9
2023-11-25T00:33:59.336Z,81.8
2023-11-25T00:34:59.277Z,81.9
2023-11-25T00:35:59.283Z,81.9
2023-11-25T00:37:01.413Z,81.8
2023-11-25T00:37:59.253Z,81.5
2023-11-25T00:38:59.267Z,81.5
2023-11-25T00:39:59.251Z,81.5
2023-11-25T00:40:59.246Z,81.6
2023-11-25T00:41:59.326Z,81.2
2023-11-25T00:42:59.242Z,81.2
2023-11-25T00:43:59.250Z,81.2
2023-11-25T00:44:59.247Z,81.2
2023-11-25T00:45:59.269Z,81.2
2023-11-25T00:46:59.292Z,81.2
2023-11-25T00:47:59.352Z,80.9
2023-11-25T00:48:59.241Z,81.2
2023-11-25T00:49:59.245Z,81.2
2023-11-25T00:50:59.240Z,81.2
2023-11-25T00:51:59.239Z,81.2
2023-11-25T00:52:59.249Z,81.2
2023-11-25T00:53:59.238Z,81.3
2023-11-25T00:54:59.245Z,81.2
2023-11-25T00:55:59.241Z,81.2
2023-11-25T00:56:59.285Z,81.2
2023-11-25T00:57:59.259Z,81.3
2023-11-25T00:58:59.235Z,81.3
2023-11-25T00:59:59.253Z,81
2023-11-25T01:00:59.236Z,80.7
2023-11-25T01:01:59.337Z,81
2023-11-25T01:02:59.301Z,80.7
2023-11-25T01:03:59.364Z,80.7
2023-11-25T01:04:59.237Z,80.6
2023-11-25T01:05:59.246Z,81.3
2023-11-25T01:06:59.239Z,81
2023-11-25T01:07:59.241Z,81.3
2023-11-25T01:08:59.246Z,81.6
2023-11-25T01:09:59.242Z,81.3
2023-11-25T01:10:59.239Z,81.3
2023-11-25T01:11:59.256Z,80.9
2023-11-25T01:12:59.239Z,80.6
2023-11-25T01:13:59.245Z,80.6
2023-11-25T01:14:59.238Z,80.6
2023-11-25T01:15:59.289Z,80.6
2023-11-25T01:16:59.316Z,81.3
2023-11-25T01:17:59.282Z,80.7
2023-11-25T01:18:59.240Z,81
2023-11-25T01:19:59.247Z,81.3
2023-11-25T01:20:59.251Z,81.3
2023-11-25T01:21:59.248Z,81.3
2023-11-25T01:22:59.249Z,81.3
2023-11-25T01:23:59.241Z,81.3
2023-11-25T01:24:59.264Z,81.6
2023-11-25T01:25:59.259Z,81.6
2023-11-25T01:26:59.322Z,81.6
2023-11-25T01:27:59.259Z,81.9
2023-11-25T01:28:59.240Z,81.9
2023-11-25T01:29:59.245Z,81.9
2023-11-25T01:30:59.238Z,81.9
2023-11-25T01:31:59.248Z,82.5
2023-11-25T01:32:59.308Z,83.1
2023-11-25T01:33:59.295Z,82.8
2023-11-25T01:34:59.330Z,83.1
2023-11-25T01:35:59.241Z,83.1
2023-11-25T01:36:59.250Z,83.1
2023-11-25T01:37:59.242Z,83.1
2023-11-25T01:38:59.288Z,83.4
2023-11-25T01:39:59.243Z,83.1
2023-11-25T01:41:00.908Z,83.1
2023-11-25T01:41:59.242Z,83.1
2023-11-25T01:42:59.242Z,83.4
2023-11-25T01:43:59.236Z,83.4
2023-11-25T01:44:59.238Z,83.1
2023-11-25T01:45:59.332Z,83.1
2023-11-25T01:46:59.277Z,83.1
2023-11-25T01:47:59.284Z,82.8
2023-11-25T01:48:59.239Z,82.5
2023-11-25T01:49:59.249Z,82.5
2023-11-25T01:50:59.245Z,82.8
2023-11-25T01:51:59.247Z,82.8
2023-11-25T01:52:59.258Z,83.1
2023-11-25T01:53:59.258Z,83.1
2023-11-25T01:54:59.251Z,83.1
2023-11-25T01:55:59.246Z,83.1
2023-11-25T01:56:59.242Z,83.1
2023-11-25T01:57:59.241Z,83.1
2023-11-25T01:58:59.248Z,83.1
2023-11-25T01:59:59.259Z,83.7
2023-11-25T02:00:59.287Z,84
2023-11-25T02:01:59.408Z,84.6
2023-11-25T02:02:59.338Z,84.9
2023-11-25T02:03:59.237Z,85.6
2023-11-25T02:04:59.318Z,85.5
2023-11-25T02:05:59.242Z,85.5
2023-11-25T02:06:59.243Z,85.9
2023-11-25T02:07:59.251Z,85.9
2023-11-25T02:08:59.251Z,85.8
2023-11-25T02:09:59.259Z,85.6
2023-11-25T02:10:59.256Z,85.2
2023-11-25T02:11:59.247Z,85.5
2023-11-25T02:12:59.248Z,85.2
2023-11-25T02:13:59.327Z,85.2
2023-11-25T02:14:59.241Z,85.5
2023-11-25T02:15:59.308Z,85.2
2023-11-25T02:16:59.402Z,85.2
2023-11-25T02:17:59.274Z,84.9
2023-11-25T02:18:59.246Z,84.9
2023-11-25T02:19:59.258Z,84.6
2023-11-25T02:20:59.245Z,84.6
2023-11-25T02:21:59.261Z,84.6
2023-11-25T02:22:59.244Z,84.3
2023-11-25T02:23:59.246Z,84.4
2023-11-25T02:24:59.242Z,84.3
2023-11-25T02:25:59.394Z,84
2023-11-25T02:26:59.245Z,83.7
2023-11-25T02:27:59.250Z,83.7
2023-11-25T02:28:59.242Z,83.4
2023-11-25T02:29:59.284Z,83.4
2023-11-25T02:30:59.253Z,83.1
2023-11-25T02:31:59.750Z,83.1
2023-11-25T02:32:59.278Z,83.1
2023-11-25T02:33:59.250Z,82.8
2023-11-25T02:34:59.245Z,82.5
2023-11-25T02:35:59.253Z,82.8
2023-11-25T02:36:59.238Z,82.8
2023-11-25T02:37:59.241Z,82.5
2023-11-25T02:39:01.942Z,82.8
2023-11-25T02:39:59.271Z,82.8
2023-11-25T02:40:59.255Z,82.5
2023-11-25T02:41:59.268Z,82.5
2023-11-25T02:42:59.245Z,82.5
2023-11-25T02:43:59.317Z,82.5
2023-11-25T02:44:59.244Z,82.5
2023-11-25T02:45:59.257Z,82.5
2023-11-25T02:46:59.256Z,82.5
2023-11-25T02:47:59.334Z,82.5
2023-11-25T02:48:59.244Z,82.5
2023-11-25T02:49:59.245Z,82.5
2023-11-25T02:50:59.242Z,82.5
2023-11-25T02:51:59.241Z,82.5
2023-11-25T02:52:59.246Z,81.9
2023-11-25T02:53:59.242Z,81.9
2023-11-25T02:54:59.242Z,81.9
2023-11-25T02:55:59.245Z,81.9
2023-11-25T02:56:59.247Z,81.9
2023-11-25T02:57:59.256Z,81.9
2023-11-25T02:58:59.245Z,81.9
2023-11-25T02:59:59.248Z,81.9
2023-11-25T03:00:59.089Z,81.6
2023-11-25T03:01:59.362Z,81.3
2023-11-25T03:02:59.358Z,81.9
2023-11-25T03:03:59.302Z,81.2
2023-11-25T03:04:59.249Z,81.9
2023-11-25T03:05:59.243Z,81.9
2023-11-25T03:06:59.253Z,81.3
2023-11-25T03:07:59.252Z,81.2
2023-11-25T03:08:59.247Z,81.3
2023-11-25T03:09:59.258Z,81
2023-11-25T03:10:59.247Z,80.9
2023-11-25T03:11:59.251Z,80.6
2023-11-25T03:12:59.274Z,80.6
2023-11-25T03:13:59.254Z,80.6
2023-11-25T03:14:59.250Z,80.6
2023-11-25T03:15:59.268Z,80.6
2023-11-25T03:16:59.350Z,80.6
2023-11-25T03:17:59.266Z,80.9
2023-11-25T03:18:59.256Z,81.2
2023-11-25T03:19:59.258Z,81.2
2023-11-25T03:20:59.268Z,81.2
2023-11-25T03:21:59.247Z,81.2
2023-11-25T03:22:59.264Z,81.2
2023-11-25T03:23:59.250Z,81.2
2023-11-25T03:24:59.248Z,81.2
2023-11-25T03:25:59.261Z,81.2
2023-11-25T03:26:59.283Z,81.2
2023-11-25T03:27:59.255Z,81.2
2023-11-25T03:28:59.250Z,81.2
2023-11-25T03:29:59.296Z,81.2
2023-11-25T03:30:59.263Z,81.2
2023-11-25T03:31:59.363Z,81.2
2023-11-25T03:32:59.303Z,81.5
2023-11-25T03:33:59.267Z,81.2
2023-11-25T03:35:01.715Z,81.2
2023-11-25T03:35:59.255Z,81.2
2023-11-25T03:36:59.253Z,81.2
2023-11-25T03:37:59.253Z,81.2
2023-11-25T03:38:59.279Z,81.2
2023-11-25T03:39:59.257Z,81.2
2023-11-25T03:40:59.257Z,80.9
2023-11-25T03:42:02.783Z,81.2
2023-11-25T03:42:59.245Z,80.5
2023-11-25T03:43:59.247Z,80.6
2023-11-25T03:44:59.264Z,80.5
2023-11-25T03:45:59.316Z,80.5
2023-11-25T03:46:59.323Z,80.5
2023-11-25T03:47:59.296Z,80.5
2023-11-25T03:48:59.250Z,80.9
2023-11-25T03:49:59.260Z,80.8
2023-11-25T03:50:59.248Z,81.1
2023-11-25T03:51:59.255Z,81.1
2023-11-25T03:52:59.258Z,80.8
2023-11-25T03:53:59.257Z,81.1
2023-11-25T03:54:59.254Z,80.8
2023-11-25T03:55:59.259Z,80.8
2023-11-25T03:56:59.255Z,80.8
2023-11-25T03:57:59.261Z,80.5
2023-11-25T03:58:59.257Z,80.5
2023-11-25T03:59:59.276Z,80.5
2023-11-25T04:00:59.253Z,80.5
2023-11-25T04:01:59.391Z,80.5
2023-11-25T04:02:59.430Z,80.5
2023-11-25T04:03:59.310Z,80.8
2023-11-25T04:04:59.300Z,80.8
2023-11-25T04:05:59.255Z,80.8
2023-11-25T04:06:59.256Z,80.8
2023-11-25T04:07:59.250Z,81.1
2023-11-25T04:08:59.257Z,81.1
2023-11-25T04:09:59.263Z,81.1
2023-11-25T04:10:59.250Z,81.1
2023-11-25T04:11:59.252Z,81.1
2023-11-25T04:12:59.258Z,81.1
2023-11-25T04:13:59.305Z,81.1
2023-11-25T04:14:59.252Z,81.1
2023-11-25T04:15:59.254Z,81.1
2023-11-25T04:16:59.329Z,81.1
2023-11-25T04:17:59.292Z,81.1
2023-11-25T04:18:59.267Z,81.1
2023-11-25T04:19:59.254Z,81.1
2023-11-25T04:20:59.296Z,81.4
2023-11-25T04:21:59.257Z,81.1
2023-11-25T04:22:59.285Z,81.4
2023-11-25T04:23:59.260Z,81.7
2023-11-25T04:24:59.241Z,81.7
2023-11-25T04:25:59.254Z,81.4
2023-11-25T04:26:59.251Z,81.7
2023-11-25T04:27:59.248Z,81.4
2023-11-25T04:28:59.249Z,81.7
2023-11-25T04:29:59.249Z,81.4
2023-11-25T04:30:59.246Z,81.4
2023-11-25T04:31:59.305Z,81.1
2023-11-25T04:32:59.258Z,81.1
2023-11-25T04:33:59.548Z,81.1
2023-11-25T04:34:59.251Z,81.1
2023-11-25T04:35:59.266Z,81.1
2023-11-25T04:36:59.246Z,81.1
2023-11-25T04:37:59.250Z,80.8
2023-11-25T04:38:59.249Z,81.1
2023-11-25T04:39:59.253Z,81.1
2023-11-25T04:40:59.323Z,81.1
2023-11-25T04:41:59.272Z,81.1
2023-11-25T04:42:59.267Z,81.1
2023-11-25T04:43:59.313Z,81.1
2023-11-25T04:44:59.258Z,81.1
2023-11-25T04:45:59.260Z,81.1
2023-11-25T04:46:59.319Z,81.1
2023-11-25T04:47:59.331Z,81.1
2023-11-25T04:48:59.263Z,81.4
2023-11-25T04:49:59.255Z,81.4
2023-11-25T04:50:59.242Z,81.1
2023-11-25T04:51:59.261Z,81.7
2023-11-25T04:52:59.243Z,81.7
2023-11-25T04:53:59.264Z,81.7
2023-11-25T04:54:59.243Z,81.7
2023-11-25T04:55:59.246Z,81.7
2023-11-25T04:56:59.249Z,81.7
2023-11-25T04:57:59.257Z,81.7
2023-11-25T04:58:59.245Z,81.7
2023-11-25T04:59:59.246Z,81.4
2023-11-25T05:00:59.267Z,81.7
2023-11-25T05:01:59.370Z,81.7
2023-11-25T05:02:59.246Z,81.7
2023-11-25T05:03:59.250Z,81.7
2023-11-25T05:04:59.249Z,81.7
2023-11-25T05:05:59.251Z,81.7
2023-11-25T05:06:59.249Z,81.7
2023-11-25T05:07:59.248Z,81.7
2023-11-25T05:08:59.276Z,81.7
2023-11-25T05:09:59.250Z,81.7
2023-11-25T05:10:59.248Z,81.7
2023-11-25T05:11:59.249Z,81.7
2023-11-25T05:12:59.247Z,81.7
2023-11-25T05:13:59.252Z,81.7
2023-11-25T05:14:59.251Z,81.4
2023-11-25T05:15:59.268Z,81.7
2023-11-25T05:16:59.380Z,81.7
2023-11-25T05:17:59.249Z,81.7
2023-11-25T05:18:59.292Z,81.7
2023-11-25T05:19:59.247Z,81.7
2023-11-25T05:20:59.254Z,81.7
2023-11-25T05:21:59.256Z,81.7
2023-11-25T05:22:59.249Z,81.7
2023-11-25T05:23:59.250Z,81.7
2023-11-25T05:24:59.255Z,81.7
2023-11-25T05:25:59.261Z,81.4
2023-11-25T05:26:59.254Z,81
2023-11-25T05:27:59.251Z,81.1
2023-11-25T05:28:59.264Z,81.1
2023-11-25T05:29:59.246Z,81
2023-11-25T05:30:59.317Z,81.7
2023-11-25T05:31:59.409Z,81.6
2023-11-25T05:32:59.268Z,82
2023-11-25T05:33:59.258Z,81.7
2023-11-25T05:34:59.252Z,81.7
2023-11-25T05:35:59.272Z,81.7
2023-11-25T05:36:59.254Z,81.7
2023-11-25T05:37:59.254Z,81.7
2023-11-25T05:38:59.253Z,81.7
2023-11-25T05:39:59.246Z,81.7
2023-11-25T05:40:59.274Z,81.7
2023-11-25T05:41:59.272Z,81.7
2023-11-25T05:42:59.244Z,81.7
2023-11-25T05:43:59.315Z,81.7
2023-11-25T05:44:59.244Z,81.6
2023-11-25T05:45:59.304Z,81.6
2023-11-25T05:46:59.244Z,81.7
2023-11-25T05:47:59.283Z,81.6
2023-11-25T05:48:59.274Z,81.6
2023-11-25T05:49:59.245Z,81.7
2023-11-25T05:50:59.272Z,81.6
2023-11-25T05:52:01.105Z,81.6
2023-11-25T05:52:59.248Z,81.6
2023-11-25T05:53:59.272Z,81
2023-11-25T05:54:59.243Z,81
2023-11-25T05:55:59.255Z,81
2023-11-25T05:56:59.245Z,81.3
2023-11-25T05:58:00.671Z,81.3
2023-11-25T05:58:59.277Z,81.6
2023-11-25T05:59:59.254Z,81.6
2023-11-25T06:00:59.262Z,81.6
2023-11-25T06:01:59.318Z,81.6
2023-11-25T06:02:59.243Z,81.7
2023-11-25T06:03:59.381Z,81.6
2023-11-25T06:04:59.355Z,81.3
2023-11-25T06:05:59.251Z,81
2023-11-25T06:06:59.258Z,81
2023-11-25T06:07:59.249Z,81
2023-11-25T06:08:59.260Z,80.7
2023-11-25T06:09:59.242Z,80.7
2023-11-25T06:10:59.266Z,80.4
2023-11-25T06:11:59.244Z,80.7
2023-11-25T06:12:59.244Z,80.4
2023-11-25T06:13:59.245Z,80.4
2023-11-25T06:14:59.241Z,80.4
2023-11-25T06:15:59.240Z,80.4
2023-11-25T06:16:59.306Z,80.4
2023-11-25T06:17:59.298Z,80.4
2023-11-25T06:18:59.245Z,80.4
2023-11-25T06:19:59.246Z,80.4
2023-11-25T06:20:59.244Z,80.7
2023-11-25T06:21:59.252Z,80.4
2023-11-25T06:22:59.254Z,80.4
2023-11-25T06:23:59.241Z,80.4
2023-11-25T06:24:59.277Z,80.3
2023-11-25T06:25:59.251Z,80.3
2023-11-25T06:26:59.247Z,80.6
2023-11-25T06:27:59.244Z,80.9
2023-11-25T06:28:59.268Z,80.9
2023-11-25T06:29:59.240Z,80.9
2023-11-25T06:30:59.241Z,81.2
2023-11-25T06:31:59.265Z,81.8
2023-11-25T06:32:59.273Z,81.9
2023-11-25T06:33:59.308Z,81.5
2023-11-25T06:34:59.393Z,81.2
2023-11-25T06:35:59.255Z,80.9
2023-11-25T06:36:59.241Z,80.9
2023-11-25T06:37:59.292Z,81.5
2023-11-25T06:38:59.272Z,81.5
2023-11-25T06:39:59.246Z,80.9
2023-11-25T06:40:59.252Z,80.9
2023-11-25T06:41:59.268Z,81.5
2023-11-25T06:42:59.277Z,81.5
2023-11-25T06:43:59.328Z,81.5
2023-11-25T06:44:59.253Z,81.5
2023-11-25T06:45:59.246Z,81.5
2023-11-25T06:46:59.298Z,81.5
2023-11-25T06:47:59.265Z,81.8
2023-11-25T06:48:59.244Z,82.1
2023-11-25T06:49:59.246Z,82.1
2023-11-25T06:50:59.285Z,82.1
2023-11-25T06:51:59.274Z,82.1
2023-11-25T06:52:59.245Z,82.5
2023-11-25T06:53:59.241Z,82.5
2023-11-25T06:54:59.262Z,82.1
2023-11-25T06:55:59.274Z,82.1
2023-11-25T06:56:59.247Z,82.5
2023-11-25T06:57:59.271Z,82.1
2023-11-25T06:58:59.258Z,82.5
2023-11-25T06:59:59.250Z,82.5
2023-11-25T07:00:59.265Z,82.8
2023-11-25T07:01:59.289Z,82.8
2023-11-25T07:02:59.298Z,82.8
2023-11-25T07:03:59.249Z,82.8
2023-11-25T07:04:59.244Z,82.8
2023-11-25T07:05:59.344Z,82.8
2023-11-25T07:06:59.249Z,82.8
2023-11-25T07:07:59.255Z,82.5
2023-11-25T07:08:59.253Z,82.8
2023-11-25T07:09:59.269Z,82.5
2023-11-25T07:10:59.270Z,82.5
2023-11-25T07:11:59.247Z,82.5
2023-11-25T07:12:59.246Z,82.2
2023-11-25T07:13:59.245Z,82.2
2023-11-25T07:14:59.243Z,82.2
2023-11-25T07:15:59.240Z,82.2
2023-11-25T07:16:59.306Z,82.2
2023-11-25T07:17:59.458Z,82.3
2023-11-25T07:18:59.239Z,82.2
2023-11-25T07:19:59.238Z,82.3
2023-11-25T07:20:59.247Z,82
2023-11-25T07:21:59.252Z,81.6
2023-11-25T07:22:59.284Z,81.6
2023-11-25T07:23:59.247Z,81.7
2023-11-25T07:24:59.246Z,81.6
2023-11-25T07:25:59.269Z,81.6
2023-11-25T07:26:59.239Z,81.6
2023-11-25T07:27:59.379Z,81.7
2023-11-25T07:28:59.237Z,81.3
2023-11-25T07:29:59.247Z,81.6
2023-11-25T07:30:59.277Z,81.7
2023-11-25T07:31:59.263Z,81.7
2023-11-25T07:32:59.365Z,81.7
2023-11-25T07:33:59.239Z,81.4
2023-11-25T07:34:59.306Z,81.3
2023-11-25T07:35:59.253Z,81
2023-11-25T07:36:59.248Z,81.1
2023-11-25T07:37:59.252Z,80.8
2023-11-25T07:38:59.244Z,81.1
2023-11-25T07:39:59.253Z,80.8
2023-11-25T07:40:59.270Z,80.5
2023-11-25T07:41:59.566Z,80.5
2023-11-25T07:42:59.280Z,80.1
2023-11-25T07:43:59.271Z,80.4
2023-11-25T07:44:59.251Z,80.2
2023-11-25T07:45:59.270Z,80.1
2023-11-25T07:46:59.344Z,80.2
2023-11-25T07:47:59.327Z,80.5
2023-11-25T07:48:59.268Z,80.5
2023-11-25T07:49:59.255Z,80.5
2023-11-25T07:50:59.265Z,80.5
2023-11-25T07:51:59.242Z,80.5
2023-11-25T07:52:59.255Z,80.5
2023-11-25T07:53:59.245Z,79.9
2023-11-25T07:54:59.269Z,80.5
2023-11-25T07:55:59.273Z,79.9
2023-11-25T07:56:59.242Z,79.9
2023-11-25T07:57:59.250Z,78.4
2023-11-25T07:59:02.054Z,78.1
2023-11-25T07:59:59.249Z,77.5
2023-11-25T08:00:59.248Z,77.5
2023-11-25T08:01:59.316Z,76.9
2023-11-25T08:02:59.380Z,76.9
2023-11-25T08:03:59.325Z,77.5
2023-11-25T08:04:59.363Z,77.2
2023-11-25T08:05:59.270Z,76.9
2023-11-25T08:06:59.242Z,76.3
2023-11-25T08:07:59.948Z,76.2
2023-11-25T08:08:59.247Z,76.3
2023-11-25T08:09:59.245Z,76.6
2023-11-25T08:10:59.255Z,77.2
2023-11-25T08:11:59.253Z,76.9
2023-11-25T08:13:00.716Z,76.3
2023-11-25T08:13:59.379Z,76.6
2023-11-25T08:19:00.456Z,75.4
2023-11-25T08:19:59.402Z,76
2023-11-25T08:20:59.372Z,75.7
2023-11-25T08:21:59.401Z,76
2023-11-25T08:22:59.484Z,76.6
2023-11-25T08:23:59.444Z,76
2023-11-25T08:24:59.363Z,76
2023-11-25T08:25:59.408Z,75.7
2023-11-25T08:26:59.388Z,75.1
2023-11-25T08:27:59.362Z,75.1
2023-11-25T08:28:59.462Z,74.5
2023-11-25T08:29:59.444Z,74.5
2023-11-25T08:31:00.697Z,74.5
2023-11-25T08:31:59.529Z,73.8
2023-11-25T08:32:59.414Z,73.9
2023-11-25T08:33:59.381Z,73.6
2023-11-25T08:34:59.358Z,73.9
2023-11-25T08:35:59.349Z,73.9
2023-11-25T08:36:59.364Z,74.8
2023-11-25T08:37:59.413Z,75.1
2023-11-25T08:38:59.338Z,75.1
2023-11-25T08:39:59.346Z,74.5
2023-11-25T08:40:59.372Z,75.2
2023-11-25T08:41:59.345Z,74.6
2023-11-25T08:42:59.356Z,75.2
2023-11-25T08:43:59.451Z,74.3
2023-11-25T08:44:59.348Z,74
2023-11-25T08:45:59.381Z,74.3
2023-11-25T08:46:59.384Z,72.7
2023-11-25T08:47:59.381Z,73.1
2023-11-25T08:48:59.375Z,72.4
2023-11-25T08:49:59.401Z,73.1
2023-11-25T08:50:59.351Z,72.1
2023-11-25T08:51:59.345Z,73.1
2023-11-25T08:52:59.408Z,73.4
2023-11-25T08:53:59.343Z,72.1
2023-11-25T08:55:59.486Z,71.8
2023-11-25T08:56:59.512Z,72.1
2023-11-25T08:57:59.468Z,72.1
2023-11-25T08:59:06.271Z,71.8
2023-11-25T08:59:59.465Z,70.6
2023-11-25T09:00:59.467Z,71.2
2023-11-25T09:01:59.555Z,72.1
2023-11-25T09:02:59.533Z,71.8
2023-11-25T09:03:59.483Z,72.1
2023-11-25T09:05:06.768Z,72.1
2023-11-25T09:05:59.500Z,71.5
2023-11-25T09:06:59.466Z,72.2
2023-11-25T09:07:59.535Z,71.5
2023-11-25T09:08:59.541Z,71.6
2023-11-25T09:09:59.474Z,71.6
2023-11-25T09:10:59.502Z,71.5
2023-11-25T09:11:59.506Z,72.5
2023-11-25T09:12:59.464Z,71.6
2023-11-25T09:13:59.511Z,71.6
2023-11-25T09:14:59.465Z,71.2
2023-11-25T09:15:59.500Z,71.6
2023-11-25T09:16:59.559Z,72.2
2023-11-25T09:17:59.488Z,72.2
2023-11-25T09:19:00.701Z,72.8
2023-11-25T09:19:59.538Z,72.8
2023-11-25T09:20:59.469Z,72.8
2023-11-25T09:21:59.468Z,71.9
2023-11-25T09:22:59.482Z,71.9
2023-11-25T09:23:59.549Z,71.9
2023-11-25T09:24:59.472Z,72.2
2023-11-25T09:25:59.521Z,71.6
2023-11-25T09:26:59.464Z,72.2
2023-11-25T09:27:59.611Z,72.5
2023-11-25T09:28:59.524Z,72.8
2023-11-25T09:29:59.471Z,72.8
2023-11-25T09:30:59.475Z,71.6
2023-11-25T09:31:59.540Z,72.2
2023-11-25T09:32:59.523Z,71.9
2023-11-25T09:33:59.547Z,70.9
2023-11-25T09:34:59.529Z,70.9
2023-11-25T09:35:59.468Z,70.9
2023-11-25T09:36:59.481Z,71.8
2023-11-25T09:37:59.499Z,71.8
2023-11-25T09:38:59.469Z,72.2
2023-11-25T09:39:59.502Z,71.9
2023-11-25T09:40:59.485Z,72.2
2023-11-25T09:41:59.472Z,72.8
2023-11-25T09:42:59.467Z,72.5
2023-11-25T09:43:59.522Z,71.5
2023-11-25T09:44:59.486Z,71.2
2023-11-25T09:45:59.512Z,71.5
2023-11-25T09:46:59.536Z,72.2
2023-11-25T09:47:59.512Z,72.5
2023-11-25T09:48:59.501Z,72.5
2023-11-25T09:49:59.507Z,72.2
2023-11-25T09:50:59.467Z,72.2
2023-11-25T09:51:59.471Z,71.5
2023-11-25T09:52:59.530Z,72.1
2023-11-25T09:53:59.470Z,71.5
2023-11-25T09:54:59.475Z,71.9
2023-11-25T09:55:59.768Z,72.2
2023-11-25T09:56:59.467Z,72.2
2023-11-25T09:57:59.482Z,72.8
2023-11-25T09:58:59.491Z,72.2
2023-11-25T09:59:59.483Z,72.5
2023-11-25T10:00:59.471Z,72.8
2023-11-25T10:01:59.743Z,72.8
2023-11-25T10:02:59.751Z,72.5
2023-11-25T10:03:59.502Z,71.5
2023-11-25T10:04:59.470Z,71.5
2023-11-25T10:05:59.469Z,71.8
2023-11-25T10:06:59.472Z,72.1
2023-11-25T10:07:59.502Z,72.1
2023-11-25T10:08:59.471Z,72.1
2023-11-25T10:09:59.484Z,72.8
2023-11-25T10:10:59.471Z,72.8
2023-11-25T10:11:59.469Z,73.1
2023-11-25T10:12:59.479Z,73.1
2023-11-25T10:13:59.485Z,72.8
2023-11-25T10:14:59.469Z,72.8
2023-11-25T10:15:59.508Z,72.5
2023-11-25T10:16:59.480Z,72.5
2023-11-25T10:17:59.535Z,72.8
2023-11-25T10:18:59.467Z,72.2
2023-11-25T10:19:59.481Z,72.2
2023-11-25T10:20:59.478Z,71.6
2023-11-25T10:21:59.491Z,72.2
2023-11-25T10:22:59.576Z,72.8
2023-11-25T10:23:59.470Z,72.2
2023-11-25T10:24:59.475Z,72.8
2023-11-25T10:25:59.505Z,72.8
2023-11-25T10:26:59.471Z,72.2
2023-11-25T10:27:59.471Z,72.2
2023-11-25T10:28:59.518Z,72.8
2023-11-25T10:29:59.479Z,73.1
2023-11-25T10:30:59.483Z,72.8
2023-11-25T10:31:59.474Z,72.8
2023-11-25T10:32:59.509Z,72.8
2023-11-25T10:33:59.520Z,72.8
2023-11-25T10:34:59.501Z,72.8
2023-11-25T10:35:59.487Z,73.1
2023-11-25T10:36:59.480Z,72.8
2023-11-25T10:37:59.577Z,72.8
2023-11-25T10:38:59.475Z,73.1
2023-11-25T10:39:59.497Z,73.1
2023-11-25T10:40:59.530Z,72.8
2023-11-25T10:41:59.478Z,72.8
2023-11-25T10:42:59.487Z,72.8
2023-11-25T10:43:59.503Z,72.8
2023-11-25T10:44:59.480Z,73.2
2023-11-25T10:45:59.485Z,72.9
2023-11-25T10:46:59.511Z,72.2
2023-11-25T10:47:59.629Z,72.5
2023-11-25T10:48:59.497Z,72.2
2023-11-25T10:49:59.541Z,72.6
2023-11-25T10:50:59.478Z,72.9
2023-11-25T10:51:59.474Z,73.5
2023-11-25T10:52:59.616Z,72.9
2023-11-25T10:53:59.473Z,72.2
2023-11-25T10:54:59.472Z,72.9
2023-11-25T10:55:59.609Z,73.5
2023-11-25T10:56:59.488Z,73.8
2023-11-25T10:57:59.477Z,73.5
2023-11-25T10:58:59.565Z,73.5
2023-11-25T10:59:59.488Z,74.1
2023-11-25T11:00:59.571Z,73.5
2023-11-25T11:01:59.532Z,73.8
2023-11-25T11:02:59.590Z,73.5
2023-11-25T11:03:59.474Z,72.9
2023-11-25T11:04:59.488Z,73.5
2023-11-25T11:05:59.473Z,73.5
2023-11-25T11:06:59.482Z,73.8
2023-11-25T11:07:59.477Z,73.5
2023-11-25T11:08:59.472Z,73.8
2023-11-25T11:09:59.772Z,73.5
2023-11-25T11:10:59.489Z,73.5
2023-11-25T11:11:59.475Z,72.9
2023-11-25T11:12:59.473Z,72.6
2023-11-25T11:13:59.478Z,73.2
2023-11-25T11:14:59.507Z,73.5
2023-11-25T11:15:59.485Z,73.2
2023-11-25T11:16:59.476Z,72.9
2023-11-25T11:17:59.568Z,73.6
2023-11-25T11:18:59.538Z,73
2023-11-25T11:19:59.512Z,73
2023-11-25T11:20:59.473Z,72.1
2023-11-25T11:21:59.474Z,71.2
2023-11-25T11:22:59.474Z,71.2
2023-11-25T11:23:59.469Z,71.5
2023-11-25T11:24:59.475Z,70.6
2023-11-25T11:26:00.286Z,69.9
2023-11-25T11:26:59.471Z,69.9
2023-11-25T11:27:59.475Z,69.9
2023-11-25T11:28:59.554Z,70.6
2023-11-25T11:29:59.480Z,69.9
2023-11-25T11:30:59.476Z,70.2
2023-11-25T11:31:59.724Z,69.9
2023-11-25T11:32:59.493Z,69.6
2023-11-25T11:33:59.477Z,69.6
2023-11-25T11:34:59.512Z,69.9
2023-11-25T11:35:59.487Z,70.5
2023-11-25T11:36:59.477Z,70.5
2023-11-25T11:37:59.517Z,70.5
2023-11-25T11:38:59.473Z,70.5
2023-11-25T11:39:59.559Z,71.1
2023-11-25T11:40:59.576Z,70.5
2023-11-25T11:41:59.478Z,70.5
2023-11-25T11:42:59.469Z,70.5
2023-11-25T11:43:59.514Z,71.1
2023-11-25T11:45:00.421Z,71.4
2023-11-25T11:45:59.501Z,71.4
2023-11-25T11:46:59.486Z,71.7
2023-11-25T11:47:59.555Z,71.1
2023-11-25T11:48:59.506Z,71.7
2023-11-25T11:49:59.587Z,72.3
2023-11-25T11:50:59.470Z,72.3
2023-11-25T11:51:59.480Z,72.6
2023-11-25T11:52:59.532Z,72.3
2023-11-25T11:53:59.487Z,72.6
2023-11-25T11:54:59.488Z,72.4
2023-11-25T11:55:59.575Z,72
2023-11-25T11:56:59.782Z,71.7
2023-11-25T11:57:59.496Z,72
2023-11-25T11:58:59.675Z,72
2023-11-25T11:59:59.536Z,71.4
2023-11-25T12:00:59.469Z,70.8
2023-11-25T12:01:59.550Z,70.8
2023-11-25T12:02:59.488Z,70.5
2023-11-25T12:03:59.559Z,69.6
2023-11-25T12:04:59.627Z,70.2
2023-11-25T12:05:59.474Z,70.5
2023-11-25T12:06:59.473Z,71.1
2023-11-25T12:07:59.507Z,70.5
2023-11-25T12:08:59.475Z,70.5
2023-11-25T12:09:59.500Z,70.5
2023-11-25T12:10:59.503Z,69.9
2023-11-25T12:11:59.476Z,70.5
2023-11-25T12:12:59.472Z,70.8
2023-11-25T12:13:59.508Z,70.8
2023-11-25T12:14:59.482Z,71.1
2023-11-25T12:15:59.472Z,71.1
2023-11-25T12:16:59.514Z,71.2
2023-11-25T12:17:59.485Z,71.2
2023-11-25T12:18:59.469Z,71.2
2023-11-25T12:19:59.510Z,70.6
2023-11-25T12:20:59.497Z,70.6
2023-11-25T12:21:59.472Z,70.9
2023-11-25T12:22:59.498Z,69.7
2023-11-25T12:23:59.474Z,68.7
2023-11-25T12:24:59.503Z,68.7
2023-11-25T12:25:59.507Z,68.8
2023-11-25T12:26:59.468Z,68.7
2023-11-25T12:27:59.470Z,67.8
2023-11-25T12:28:59.518Z,68.1
2023-11-25T12:29:59.577Z,67.5
2023-11-25T12:30:59.487Z,66.3
2023-11-25T12:31:59.520Z,65.9
2023-11-25T12:32:59.549Z,66.9
2023-11-25T12:33:59.482Z,68.7
2023-11-25T12:34:59.497Z,66.2
2023-11-25T12:35:59.488Z,66.5
2023-11-25T12:36:59.481Z,67.4
2023-11-25T12:38:08.000Z,68.7
2023-11-25T12:38:59.482Z,68
2023-11-25T12:39:59.532Z,67.7
2023-11-25T12:40:59.509Z,68
2023-11-25T12:41:59.504Z,68.7
2023-11-25T12:42:59.483Z,68.7
2023-11-25T12:43:59.513Z,69
2023-11-25T12:44:59.479Z,69.3
2023-11-25T12:45:59.579Z,69.3
2023-11-25T12:46:59.610Z,69.9
2023-11-25T12:47:59.494Z,68.7
2023-11-25T12:49:05.989Z,68
2023-11-25T12:49:59.541Z,67.4
2023-11-25T12:50:59.510Z,68.1
2023-11-25T12:51:59.491Z,68.1
2023-11-25T12:52:59.528Z,68.1
2023-11-25T12:53:59.520Z,68.4
2023-11-25T12:54:59.504Z,68.4
2023-11-25T12:55:59.565Z,68.1
2023-11-25T12:56:59.502Z,65.6
2023-11-25T12:57:59.489Z,66.2
2023-11-25T12:58:59.507Z,67.4
2023-11-25T12:59:59.524Z,66.8
2023-11-25T13:00:59.589Z,68
2023-11-25T13:01:59.579Z,68
2023-11-25T13:02:59.613Z,67.1
2023-11-25T13:03:59.531Z,65.8
2023-11-25T13:04:59.563Z,66.7
2023-11-25T13:05:59.475Z,68
2023-11-25T13:06:59.480Z,67.4
2023-11-25T13:07:59.561Z,67.4
2023-11-25T13:08:59.475Z,68
2023-11-25T13:09:59.495Z,66.4
2023-11-25T13:10:59.509Z,66.8
2023-11-25T13:11:59.480Z,66.7
2023-11-25T13:12:59.477Z,67.7
2023-11-25T13:13:59.497Z,68.6
2023-11-25T13:14:59.495Z,68.9
2023-11-25T13:15:59.475Z,67.4
2023-11-25T13:16:59.575Z,68
2023-11-25T13:17:59.495Z,68.6
2023-11-25T13:18:59.484Z,68.6
2023-11-25T13:19:59.596Z,68.6
2023-11-25T13:20:59.475Z,68.9
2023-11-25T13:21:59.477Z,69.5
2023-11-25T13:22:59.528Z,69.8
2023-11-25T13:23:59.476Z,68.9
2023-11-25T13:24:59.486Z,68.6
2023-11-25T13:25:59.512Z,68.6